createdAt,value
2022-11-25T00:01:17.302Z,6.51
2022-11-25T00:03:46.427Z,6.56
2022-11-25T00:06:16.293Z,6.49
2022-11-25T00:08:46.472Z,6.50
2022-11-25T00:11:16.769Z,6.64
2022-11-25T00:13:46.084Z,6.61
2022-11-25T00:16:16.452Z,6.69
2022-11-25T00:18:45.976Z,6.68
2022-11-25T00:21:18.730Z,6.64
2022-11-25T00:23:51.255Z,6.53
2022-11-25T00:26:20.689Z,6.49
2022-11-25T00:28:49.993Z,6.42
2022-11-25T00:31:19.575Z,6.46
2022-11-25T00:33:48.696Z,6.42
2022-11-25T00:36:19.040Z,6.48
2022-11-25T00:38:47.316Z,6.25
2022-11-25T00:41:33.040Z,6.34
2022-11-25T00:44:19.775Z,6.28
2022-11-25T00:46:47.700Z,6.39
2022-11-25T00:49:15.621Z,6.30
2022-11-25T00:51:43.527Z,6.26
2022-11-25T00:54:11.573Z,6.17
2022-11-25T00:56:39.570Z,6.07
2022-11-25T00:59:09.196Z,6.01
2022-11-25T01:01:37.666Z,6.08
2022-11-25T01:04:06.741Z,6.02
2022-11-25T01:06:34.748Z,6.04
2022-11-25T01:09:02.852Z,6.10
2022-11-25T01:11:30.787Z,6.21
2022-11-25T01:14:01.425Z,6.28
2022-11-25T01:16:31.868Z,6.23
2022-11-25T01:19:00.985Z,6.12
2022-11-25T01:21:30.487Z,6.04
2022-11-25T01:24:00.477Z,5.97
2022-11-25T01:26:29.364Z,6.14
2022-11-25T01:28:58.614Z,6.12
2022-11-25T01:31:29.725Z,6.10
2022-11-25T01:34:02.316Z,6.17
2022-11-25T01:36:31.083Z,5.97
2022-11-25T01:39:01.246Z,6.22
2022-11-25T01:41:31.174Z,6.06
2022-11-25T01:44:10.772Z,6.14
2022-11-25T01:46:46.005Z,6.00
2022-11-25T01:49:19.213Z,6.11
2022-11-25T01:51:53.006Z,6.04
2022-11-25T01:54:25.404Z,6.08
2022-11-25T01:56:58.232Z,6.02
2022-11-25T01:59:27.369Z,6.11
2022-11-25T02:01:56.316Z,6.13
2022-11-25T02:04:29.145Z,6.26
2022-11-25T02:07:02.016Z,6.30
2022-11-25T02:09:30.833Z,6.28
2022-11-25T02:11:59.294Z,6.24
2022-11-25T02:14:28.323Z,6.21
2022-11-25T02:16:56.532Z,6.31
2022-11-25T02:19:33.781Z,6.37
2022-11-25T02:22:07.468Z,6.47
2022-11-25T02:24:40.250Z,6.39
2022-11-25T02:27:09.884Z,6.49
2022-11-25T02:29:39.266Z,6.44
2022-11-25T02:32:07.416Z,6.33
2022-11-25T02:34:35.599Z,6.39
2022-11-25T02:37:03.787Z,6.45
2022-11-25T02:39:31.893Z,6.42
2022-11-25T02:42:01.549Z,6.39
2022-11-25T02:44:31.738Z,6.45
2022-11-25T02:46:59.652Z,6.60
2022-11-25T02:49:27.598Z,6.64
2022-11-25T02:51:55.530Z,6.70
2022-11-25T02:54:23.485Z,6.75
2022-11-25T02:56:51.518Z,6.86
2022-11-25T02:59:19.432Z,6.90
2022-11-25T03:01:48.810Z,6.80
2022-11-25T03:04:16.740Z,6.84
2022-11-25T03:06:44.741Z,6.70
2022-11-25T03:09:12.661Z,6.66
2022-11-25T03:11:57.785Z,6.57
2022-11-25T03:14:25.810Z,6.66
2022-11-25T03:16:55.163Z,6.78
2022-11-25T03:19:23.162Z,6.81
2022-11-25T03:21:51.280Z,6.81
2022-11-25T03:24:19.194Z,6.88
2022-11-25T03:26:47.112Z,6.78
2022-11-25T03:29:15.024Z,6.86
2022-11-25T03:31:42.982Z,6.78
2022-11-25T03:34:12.350Z,6.88
2022-11-25T03:36:40.627Z,6.81
2022-11-25T03:39:09.024Z,6.91
2022-11-25T03:41:37.049Z,6.84
2022-11-25T03:44:04.975Z,6.90
2022-11-25T03:46:33.022Z,7.03
2022-11-25T03:49:00.949Z,7.08
2022-11-25T03:51:30.331Z,7.10
2022-11-25T03:53:58.318Z,7.01
2022-11-25T03:56:26.303Z,7.00
2022-11-25T03:58:54.257Z,6.92
2022-11-25T04:01:22.311Z,7.12
2022-11-25T04:03:50.290Z,7.19
2022-11-25T04:06:20.219Z,7.29
2022-11-25T04:08:49.536Z,7.25
2022-11-25T04:11:17.640Z,7.19
2022-11-25T04:13:44.597Z,7.15
2022-11-25T04:16:21.222Z,7.24
2022-11-25T04:18:49.309Z,7.32
2022-11-25T04:21:17.519Z,7.27
2022-11-25T04:23:45.505Z,7.09
2022-11-25T04:26:15.484Z,7.01
2022-11-25T04:28:43.478Z,6.94
2022-11-25T04:31:11.890Z,7.11
2022-11-25T04:33:40.040Z,7.28
2022-11-25T04:36:08.957Z,7.27
2022-11-25T04:38:37.104Z,7.20
2022-11-25T04:41:05.725Z,7.24
2022-11-25T04:43:35.197Z,7.24
2022-11-25T04:46:14.090Z,7.18
2022-11-25T04:48:42.712Z,7.19
2022-11-25T04:51:10.862Z,7.26
2022-11-25T04:53:38.964Z,7.20
2022-11-25T04:56:07.654Z,7.27
2022-11-25T04:58:54.396Z,7.35
2022-11-25T05:01:22.505Z,7.34
2022-11-25T05:03:57.170Z,7.33
2022-11-25T05:06:25.789Z,7.26
2022-11-25T05:08:53.748Z,7.26
2022-11-25T05:11:21.689Z,7.20
2022-11-25T05:13:50.997Z,7.30
2022-11-25T05:16:19.018Z,7.18
2022-11-25T05:18:46.969Z,7.20
2022-11-25T05:21:15.010Z,7.05
2022-11-25T05:23:42.950Z,7.09
2022-11-25T05:26:10.963Z,7.24
2022-11-25T05:28:38.944Z,7.34
2022-11-25T05:31:08.692Z,7.39
2022-11-25T05:33:36.803Z,7.43
2022-11-25T05:36:05.661Z,7.34
2022-11-25T05:38:33.620Z,7.36
2022-11-25T05:41:02.837Z,7.39
2022-11-25T05:43:30.842Z,7.36
2022-11-25T05:45:58.831Z,7.31
2022-11-25T05:48:28.165Z,7.40
2022-11-25T05:50:56.109Z,7.46
2022-11-25T05:53:24.032Z,7.49
2022-11-25T05:55:56.544Z,7.53
2022-11-25T05:58:24.628Z,7.41
2022-11-25T06:00:53.457Z,7.53
2022-11-25T06:03:21.472Z,7.46
2022-11-25T06:05:50.906Z,7.58
2022-11-25T06:08:18.875Z,7.57
2022-11-25T06:10:46.849Z,7.49
2022-11-25T06:13:14.808Z,7.61
2022-11-25T06:15:43.927Z,7.51
2022-11-25T06:18:12.440Z,7.52
2022-11-25T06:20:40.695Z,7.61
2022-11-25T06:23:11.080Z,7.69
2022-11-25T06:25:39.295Z,7.71
2022-11-25T06:28:14.215Z,7.67
2022-11-25T06:30:42.152Z,7.65
2022-11-25T06:33:10.136Z,7.67
2022-11-25T06:35:38.051Z,7.70
2022-11-25T06:38:06.008Z,7.69
2022-11-25T06:40:35.324Z,7.47
2022-11-25T06:43:04.745Z,7.52
2022-11-25T06:45:33.563Z,7.49
2022-11-25T06:48:01.485Z,7.56
2022-11-25T06:50:29.453Z,7.46
2022-11-25T06:52:57.372Z,7.41
2022-11-25T06:55:25.312Z,7.57
2022-11-25T06:58:08.412Z,7.61
2022-11-25T07:00:43.785Z,7.58
2022-11-25T07:03:11.963Z,7.50
2022-11-25T07:05:40.045Z,7.62
2022-11-25T07:08:07.982Z,7.64
2022-11-25T07:10:36.127Z,7.69
2022-11-25T07:13:05.467Z,7.76
2022-11-25T07:15:35.479Z,7.81
2022-11-25T07:18:03.487Z,7.86
2022-11-25T07:20:32.858Z,7.84
2022-11-25T07:23:00.800Z,7.85
2022-11-25T07:25:30.799Z,7.73
2022-11-25T07:27:59.872Z,7.73
2022-11-25T07:31:21.857Z,7.82
2022-11-25T07:33:17.197Z,7.85
2022-11-25T07:35:45.506Z,7.80
2022-11-25T07:38:13.508Z,7.82
2022-11-25T07:40:41.430Z,7.85
2022-11-25T07:43:09.466Z,7.77
2022-11-25T07:45:38.943Z,7.82
2022-11-25T07:48:07.213Z,7.99
2022-11-25T07:50:35.176Z,8.07
2022-11-25T07:53:03.107Z,8.22
2022-11-25T07:55:31.102Z,8.26
2022-11-25T07:57:59.047Z,8.17
2022-11-25T08:00:27.343Z,8.34
2022-11-25T08:02:56.856Z,8.28
2022-11-25T08:05:24.836Z,8.26
2022-11-25T08:07:52.889Z,8.24
2022-11-25T08:10:21.000Z,8.25
2022-11-25T08:12:48.999Z,8.38
2022-11-25T08:15:16.978Z,8.34
2022-11-25T08:17:44.933Z,8.41
2022-11-25T08:20:14.919Z,8.48
2022-11-25T08:22:42.870Z,8.54
2022-11-25T08:25:11.321Z,8.43
2022-11-25T08:27:39.225Z,8.51
2022-11-25T08:30:08.668Z,8.33
2022-11-25T08:32:38.693Z,8.43
2022-11-25T08:35:07.814Z,8.39
2022-11-25T08:37:37.122Z,8.36
2022-11-25T08:40:05.996Z,8.47
2022-11-25T08:42:33.964Z,8.51
2022-11-25T08:45:01.870Z,8.53
2022-11-25T08:47:29.797Z,8.34
2022-11-25T08:49:57.875Z,8.37
2022-11-25T08:52:26.711Z,8.52
2022-11-25T08:54:56.088Z,8.58
2022-11-25T08:57:24.005Z,8.54
2022-11-25T08:59:51.932Z,8.42
2022-11-25T09:02:20.152Z,8.41
2022-11-25T09:04:48.111Z,8.62
2022-11-25T09:07:16.130Z,8.44
2022-11-25T09:09:44.561Z,8.43
2022-11-25T09:12:13.918Z,8.58
2022-11-25T09:14:41.923Z,8.67
2022-11-25T09:17:11.121Z,8.78
2022-11-25T09:19:39.803Z,8.92
2022-11-25T09:22:08.554Z,9.04
2022-11-25T09:24:36.624Z,9.13
2022-11-25T09:27:04.771Z,9.24
2022-11-25T09:29:34.316Z,9.22
2022-11-25T09:32:02.561Z,9.28
2022-11-25T09:34:30.525Z,9.12
2022-11-25T09:36:58.597Z,9.04
2022-11-25T09:39:30.038Z,9.02
2022-11-25T09:42:29.308Z,9.14
2022-11-25T09:45:35.113Z,9.25
2022-11-25T09:48:20.990Z,8.87
2022-11-25T09:50:59.368Z,8.70
2022-11-25T09:53:43.304Z,8.82
2022-11-25T09:56:20.344Z,8.89
2022-11-25T09:58:53.105Z,9.04
2022-11-25T10:01:25.922Z,9.17
2022-11-25T10:03:58.829Z,9.31
2022-11-25T10:06:30.060Z,9.42
2022-11-25T10:09:00.037Z,9.54
2022-11-25T10:11:48.410Z,9.48
2022-11-25T10:14:25.448Z,9.63
2022-11-25T10:17:04.692Z,9.65
2022-11-25T10:19:44.926Z,9.61
2022-11-25T10:22:22.665Z,9.54
2022-11-25T10:24:53.003Z,9.65
2022-11-25T10:27:26.627Z,9.71
2022-11-25T10:30:03.989Z,9.84
2022-11-25T10:32:40.914Z,9.84
2022-11-25T10:35:20.705Z,9.77
2022-11-25T10:37:55.195Z,9.66
2022-11-25T10:40:23.845Z,9.82
2022-11-25T10:42:51.861Z,9.97
2022-11-25T10:45:24.022Z,9.89
2022-11-25T10:48:07.683Z,9.76
2022-11-25T10:50:48.370Z,9.78
2022-11-25T10:53:21.709Z,9.86
2022-11-25T10:56:01.231Z,9.90
2022-11-25T10:58:32.643Z,10.05
2022-11-25T11:01:14.174Z,10.15
2022-11-25T11:03:45.269Z,10.23
2022-11-25T11:06:36.501Z,10.22
2022-11-25T11:09:05.673Z,10.36
2022-11-25T11:11:34.177Z,10.37
2022-11-25T11:14:14.945Z,10.10
2022-11-25T11:16:45.744Z,10.07
2022-11-25T11:19:26.791Z,10.10
2022-11-25T11:21:56.158Z,10.25
2022-11-25T11:24:28.613Z,10.42
2022-11-25T11:27:08.536Z,10.23
2022-11-25T11:29:37.070Z,10.15
2022-11-25T11:32:06.793Z,10.10
2022-11-25T11:35:00.756Z,10.29
2022-11-25T11:37:42.205Z,10.37
2022-11-25T11:40:26.979Z,10.44
2022-11-25T11:43:08.288Z,10.58
2022-11-25T11:45:49.489Z,10.53
2022-11-25T11:48:26.290Z,10.57
2022-11-25T11:51:04.115Z,10.73
2022-11-25T11:53:41.464Z,10.80
2022-11-25T11:59:14.259Z,10.99
2022-11-25T12:01:54.319Z,10.97
2022-11-25T12:04:28.959Z,11.00
2022-11-25T12:07:07.453Z,10.98
2022-11-25T12:09:43.258Z,10.90
2022-11-25T12:12:16.002Z,10.98
2022-11-25T12:14:48.287Z,11.07
2022-11-25T12:17:20.165Z,10.99
2022-11-25T12:19:56.741Z,11.02
2022-11-25T12:22:31.862Z,11.08
2022-11-25T12:25:07.061Z,11.12
2022-11-25T12:27:40.092Z,11.09
2022-11-25T12:30:11.737Z,10.86
2022-11-25T12:32:53.486Z,10.66
2022-11-25T12:35:29.264Z,10.90
2022-11-25T12:38:06.545Z,10.99
2022-11-25T12:40:38.753Z,11.03
2022-11-25T12:43:21.185Z,10.98
2022-11-25T12:46:00.160Z,10.80
2022-11-25T12:48:28.145Z,10.98
2022-11-25T12:51:04.208Z,11.07
2022-11-25T12:53:40.641Z,11.12
2022-11-25T12:56:19.325Z,11.15
2022-11-25T12:58:54.748Z,11.15
2022-11-25T13:01:50.880Z,11.12
2022-11-25T13:04:33.625Z,11.05
2022-11-25T13:07:27.100Z,11.00
2022-11-25T13:10:21.862Z,10.82
2022-11-25T13:13:04.041Z,10.72
2022-11-25T13:15:38.294Z,10.77
2022-11-25T13:18:15.402Z,10.72
2022-11-25T13:20:49.477Z,10.69
2022-11-25T13:23:29.528Z,10.52
2022-11-25T13:26:37.142Z,10.59
2022-11-25T13:30:04.227Z,10.47
2022-11-25T13:32:46.420Z,10.33
2022-11-25T13:35:51.852Z,10.08
2022-11-25T13:38:59.055Z,9.83
2022-11-25T13:41:41.850Z,9.78
2022-11-25T13:44:30.780Z,9.61
2022-11-25T13:47:01.792Z,9.61
2022-11-25T13:49:45.380Z,9.71
2022-11-25T13:52:39.303Z,9.75
2022-11-25T13:55:23.142Z,9.56
2022-11-25T13:58:04.057Z,9.27
2022-11-25T14:00:50.667Z,9.27
2022-11-25T14:03:52.244Z,9.17
2022-11-25T14:06:44.318Z,9.15
2022-11-25T14:09:27.597Z,9.03
2022-11-25T14:12:08.952Z,9.07
2022-11-25T14:14:56.870Z,9.13
2022-11-25T14:17:49.636Z,9.31
2022-11-25T14:20:32.312Z,9.38
2022-11-25T14:23:22.813Z,9.49
2022-11-25T14:25:53.301Z,9.50
2022-11-25T14:28:32.111Z,9.52
2022-11-25T14:31:06.440Z,9.57
2022-11-25T14:33:37.805Z,9.48
2022-11-25T14:36:12.232Z,9.45
2022-11-25T14:38:46.454Z,9.48
2022-11-25T14:41:17.773Z,9.58
2022-11-25T14:43:52.118Z,9.63
2022-11-25T14:46:22.312Z,9.61
2022-11-25T14:48:55.372Z,9.58
2022-11-25T14:51:24.361Z,9.37
2022-11-25T14:53:54.176Z,9.51
2022-11-25T14:56:28.932Z,9.30
2022-11-25T14:58:59.273Z,9.16
2022-11-25T15:01:28.776Z,9.14
2022-11-25T15:04:04.093Z,9.04
2022-11-25T15:06:35.607Z,8.87
2022-11-25T15:09:23.112Z,8.72
2022-11-25T15:11:56.531Z,8.57
2022-11-25T15:14:30.460Z,8.25
2022-11-25T15:16:59.333Z,7.77
2022-11-25T15:19:33.906Z,7.58
2022-11-25T15:24:56.174Z,7.22
2022-11-25T15:27:27.361Z,7.25
2022-11-25T15:29:56.725Z,7.33
2022-11-25T15:32:27.853Z,7.31
2022-11-25T15:34:58.345Z,7.26
2022-11-25T15:37:26.514Z,7.18
2022-11-25T15:40:28.020Z,7.07
2022-11-25T15:42:58.151Z,6.91
2022-11-25T15:45:28.387Z,6.76
2022-11-25T15:47:58.243Z,6.71
2022-11-25T15:50:28.279Z,6.73
2022-11-25T15:52:59.593Z,6.55
2022-11-25T15:55:33.046Z,6.71
2022-11-25T15:58:07.615Z,6.86
2022-11-25T16:00:35.568Z,6.93
2022-11-25T16:03:04.328Z,6.85
2022-11-25T16:05:35.976Z,6.91
2022-11-25T16:08:26.731Z,6.81
2022-11-25T16:10:57.717Z,6.40
2022-11-25T16:13:35.306Z,6.47
2022-11-25T16:16:33.565Z,6.39
2022-11-25T16:19:22.164Z,6.36
2022-11-25T16:21:57.134Z,6.55
2022-11-25T16:24:42.752Z,6.65
2022-11-25T16:27:19.305Z,6.08
2022-11-25T16:29:54.457Z,5.98
2022-11-25T16:32:24.525Z,5.91
2022-11-25T16:34:52.763Z,6.08
2022-11-25T16:37:20.754Z,5.92
2022-11-25T16:39:48.714Z,5.96
2022-11-25T16:42:21.625Z,6.05
2022-11-25T16:44:52.834Z,6.00
2022-11-25T16:47:22.800Z,6.07
2022-11-25T16:49:50.780Z,6.00
2022-11-25T16:52:18.796Z,6.10
2022-11-25T16:54:47.511Z,6.23
2022-11-25T16:57:20.320Z,6.11
2022-11-25T16:59:57.259Z,5.95
2022-11-25T17:02:26.476Z,6.04
2022-11-25T17:04:54.912Z,5.93
2022-11-25T17:07:38.371Z,6.09
2022-11-25T17:10:08.174Z,6.00
2022-11-25T17:12:37.469Z,6.10
2022-11-25T17:15:13.726Z,6.00
2022-11-25T17:17:41.976Z,5.93
2022-11-25T17:20:16.987Z,5.91
2022-11-25T17:22:44.957Z,5.81
2022-11-25T17:25:13.689Z,5.93
2022-11-25T17:27:42.683Z,5.95
2022-11-25T17:30:19.758Z,5.95
2022-11-25T17:32:48.637Z,5.94
2022-11-25T17:35:19.492Z,5.90
2022-11-25T17:37:47.878Z,5.79
2022-11-25T17:40:16.297Z,5.83
2022-11-25T17:42:45.978Z,5.81
2022-11-25T17:45:16.945Z,5.84
2022-11-25T17:47:45.563Z,5.94
2022-11-25T17:50:19.519Z,5.83
2022-11-25T17:52:47.577Z,5.94
2022-11-25T17:55:19.747Z,5.95
2022-11-25T17:57:50.669Z,5.95
2022-11-25T18:00:23.479Z,5.82
2022-11-25T18:02:52.337Z,5.69
2022-11-25T18:05:22.208Z,5.79
2022-11-25T18:07:50.966Z,5.83
2022-11-25T18:10:21.609Z,5.90
2022-11-25T18:12:53.155Z,5.80
2022-11-25T18:15:25.899Z,5.87
2022-11-25T18:18:00.864Z,5.80
2022-11-25T18:20:31.103Z,5.64
2022-11-25T18:22:59.241Z,5.71
2022-11-25T18:25:31.683Z,5.75
2022-11-25T18:28:01.550Z,5.59
2022-11-25T18:30:33.796Z,5.68
2022-11-25T18:33:02.363Z,5.69
2022-11-25T18:35:36.139Z,5.61
2022-11-25T18:38:05.948Z,5.79
2022-11-25T18:40:35.376Z,5.79
2022-11-25T18:43:05.507Z,5.63
2022-11-25T18:45:37.318Z,5.75
2022-11-25T18:48:15.213Z,5.51
2022-11-25T18:50:44.781Z,5.58
2022-11-25T18:53:13.176Z,5.47
2022-11-25T18:55:41.945Z,5.53
2022-11-25T18:58:16.644Z,5.52
2022-11-25T19:00:48.587Z,5.68
2022-11-25T19:03:19.825Z,5.89
2022-11-25T19:05:48.245Z,5.96
2022-11-25T19:08:16.429Z,6.01
2022-11-25T19:10:47.097Z,6.09
2022-11-25T19:13:18.981Z,6.19
2022-11-25T19:15:49.140Z,6.28
2022-11-25T19:18:24.121Z,6.21
2022-11-25T19:20:52.173Z,6.24
2022-11-25T19:23:25.485Z,6.15
2022-11-25T19:25:55.457Z,5.97
2022-11-25T19:28:23.772Z,6.13
2022-11-25T19:30:58.320Z,6.15
2022-11-25T19:33:30.373Z,6.15
2022-11-25T19:35:59.096Z,6.12
2022-11-25T19:38:27.393Z,6.08
2022-11-25T19:40:56.664Z,6.09
2022-11-25T19:43:27.143Z,6.04
2022-11-25T19:45:57.690Z,5.93
2022-11-25T19:48:28.501Z,5.76
2022-11-25T19:50:59.890Z,5.39
2022-11-25T19:53:33.578Z,5.61
2022-11-25T19:56:04.616Z,5.54
2022-11-25T19:58:33.278Z,5.65
2022-11-25T20:01:06.129Z,5.64
2022-11-25T20:03:34.620Z,5.66
2022-11-25T20:06:02.689Z,5.53
2022-11-25T20:08:30.740Z,5.46
2022-11-25T20:10:59.540Z,5.36
2022-11-25T20:13:27.844Z,5.22
2022-11-25T20:15:56.628Z,5.16
2022-11-25T20:18:28.628Z,5.33
2022-11-25T20:21:01.297Z,4.88
2022-11-25T20:23:32.520Z,4.90
2022-11-25T20:26:00.708Z,5.12
2022-11-25T20:28:31.151Z,5.31
2022-11-25T20:31:00.172Z,5.40
2022-11-25T20:33:29.495Z,5.41
2022-11-25T20:36:06.338Z,5.27
2022-11-25T20:38:37.273Z,5.31
2022-11-25T20:41:05.685Z,5.40
2022-11-25T20:43:36.770Z,5.49
2022-11-25T20:46:05.644Z,5.49
2022-11-25T20:48:38.182Z,5.57
2022-11-25T20:51:13.299Z,5.57
2022-11-25T20:53:45.005Z,5.62
2022-11-25T20:56:15.949Z,5.63
2022-11-25T20:58:44.824Z,5.59
2022-11-25T21:01:14.479Z,5.50
2022-11-25T21:03:44.333Z,5.53
2022-11-25T21:06:20.940Z,5.55
2022-11-25T21:08:51.204Z,5.46
2022-11-25T21:11:20.084Z,5.51
2022-11-25T21:13:48.611Z,5.31
2022-11-25T21:16:17.283Z,5.23
2022-11-25T21:18:47.006Z,5.03
2022-11-25T21:21:19.216Z,5.07
2022-11-25T21:23:48.838Z,5.08
2022-11-25T21:26:19.748Z,5.04
2022-11-25T21:28:48.997Z,4.96
2022-11-25T21:31:18.884Z,4.92
2022-11-25T21:33:48.955Z,4.96
2022-11-25T21:36:20.684Z,4.63
2022-11-25T21:38:50.292Z,4.16
2022-11-25T21:41:19.063Z,4.12
2022-11-25T21:43:50.580Z,4.12
2022-11-25T21:46:20.666Z,4.31
2022-11-25T21:48:50.773Z,4.33
2022-11-25T21:51:21.823Z,4.41
2022-11-25T21:53:50.934Z,4.05
2022-11-25T21:56:24.382Z,4.13
2022-11-25T21:58:52.910Z,3.99
2022-11-25T22:01:21.211Z,4.13
2022-11-25T22:03:51.005Z,4.17
2022-11-25T22:06:22.728Z,4.18
2022-11-25T22:08:51.141Z,4.15
2022-11-25T22:11:23.892Z,4.20
2022-11-25T22:13:52.519Z,4.18
2022-11-25T22:16:27.476Z,3.99
2022-11-25T22:18:57.521Z,4.08
2022-11-25T22:21:25.672Z,4.10
2022-11-25T22:23:53.734Z,4.03
2022-11-25T22:26:27.509Z,4.09
2022-11-25T22:28:55.572Z,4.14
2022-11-25T22:31:25.195Z,4.13
2022-11-25T22:33:53.410Z,4.02
2022-11-25T22:36:32.677Z,3.98
2022-11-25T22:39:10.149Z,3.83
2022-11-25T22:41:38.159Z,3.83
2022-11-25T22:44:06.431Z,3.72
2022-11-25T22:46:37.624Z,3.81
2022-11-25T22:49:05.620Z,3.86
2022-11-25T22:51:34.939Z,3.96
2022-11-25T22:54:02.912Z,3.93
2022-11-25T22:56:31.323Z,3.98
2022-11-25T22:59:01.160Z,4.00
2022-11-25T23:01:29.206Z,4.04
2022-11-25T23:03:57.162Z,3.96
2022-11-25T23:06:27.134Z,3.91
2022-11-25T23:08:56.544Z,3.83
2022-11-25T23:11:24.554Z,3.81
2022-11-25T23:13:52.488Z,3.77
2022-11-25T23:16:20.491Z,3.85
2022-11-25T23:18:48.695Z,3.68
2022-11-25T23:21:19.039Z,3.61
2022-11-25T23:23:47.129Z,3.79
2022-11-25T23:26:16.499Z,3.83
2022-11-25T23:28:44.450Z,3.79
2022-11-25T23:31:14.543Z,3.75
2022-11-25T23:33:46.006Z,3.63
2022-11-25T23:36:22.482Z,3.67
2022-11-25T23:38:52.921Z,3.71
2022-11-25T23:41:25.012Z,3.68
2022-11-25T23:43:53.743Z,3.71
2022-11-25T23:46:25.177Z,3.63
2022-11-25T23:48:56.034Z,3.66
2022-11-25T23:51:25.280Z,3.67
2022-11-25T23:53:54.623Z,3.69
2022-11-25T23:56:24.440Z,3.71
2022-11-25T23:58:52.364Z,3.68
